createdAt,value
2023-11-21T00:01:50.614Z,64.09
2023-11-21T00:04:53.499Z,64.07
2023-11-21T00:07:55.843Z,64.02
2023-11-21T00:10:58.301Z,63.96
2023-11-21T00:14:00.779Z,63.95
2023-11-21T00:17:02.805Z,63.89
2023-11-21T00:20:07.804Z,63.79
2023-11-21T00:23:11.209Z,63.87
2023-11-21T00:26:13.640Z,63.90
2023-11-21T00:29:18.533Z,63.82
2023-11-21T00:32:20.871Z,63.79
2023-11-21T00:35:22.836Z,63.77
2023-11-21T00:38:25.507Z,63.78
2023-11-21T00:41:28.802Z,63.72
2023-11-21T00:44:31.047Z,63.78
2023-11-21T00:47:35.657Z,63.76
2023-11-21T00:50:38.011Z,63.71
2023-11-21T00:53:40.565Z,63.88
2023-11-21T00:56:42.907Z,63.97
2023-11-21T00:59:44.896Z,64.03
2023-11-21T01:02:47.957Z,64.12
2023-11-21T01:05:51.369Z,64.17
2023-11-21T01:08:53.743Z,64.25
2023-11-21T01:11:55.667Z,64.37
2023-11-21T01:15:01.335Z,64.43
2023-11-21T01:18:04.868Z,64.49
2023-11-21T01:21:08.721Z,64.59
2023-11-21T01:24:10.688Z,64.59
2023-11-21T01:27:13.067Z,64.71
2023-11-21T01:30:15.663Z,64.78
2023-11-21T01:33:18.033Z,64.80
2023-11-21T01:36:20.072Z,64.82
2023-11-21T01:39:25.058Z,64.92
2023-11-21T01:42:28.206Z,64.42
2023-11-21T01:45:34.483Z,64.84
2023-11-21T01:48:36.792Z,65.22
2023-11-21T01:51:39.243Z,65.54
2023-11-21T01:54:42.101Z,65.99
2023-11-21T01:57:47.854Z,65.69
2023-11-21T02:00:52.113Z,65.47
2023-11-21T02:03:54.532Z,65.33
2023-11-21T02:06:57.297Z,65.21
2023-11-21T02:10:00.234Z,65.15
2023-11-21T02:13:04.289Z,65.11
2023-11-21T02:16:07.172Z,65.09
2023-11-21T02:19:13.724Z,65.07
2023-11-21T02:22:18.013Z,65.05
2023-11-21T02:25:20.101Z,65.08
2023-11-21T02:28:27.198Z,65.10
2023-11-21T02:31:29.554Z,65.11
2023-11-21T02:34:31.918Z,65.08
2023-11-21T02:37:33.910Z,65.10
2023-11-21T02:40:36.230Z,65.17
2023-11-21T02:43:39.893Z,65.22
2023-11-21T02:46:42.490Z,65.22
2023-11-21T02:49:44.565Z,65.26
2023-11-21T02:52:47.215Z,65.27
2023-11-21T02:55:49.969Z,65.34
2023-11-21T02:58:52.369Z,65.34
2023-11-21T03:01:54.478Z,65.43
2023-11-21T03:04:56.801Z,65.48
2023-11-21T03:07:58.867Z,65.58
2023-11-21T03:11:06.001Z,65.71
2023-11-21T03:14:08.101Z,64.48
2023-11-21T03:17:10.387Z,67.17
2023-11-21T03:20:12.890Z,66.72
2023-11-21T03:23:16.322Z,66.46
2023-11-21T03:26:18.323Z,66.31
2023-11-21T03:29:20.738Z,66.19
2023-11-21T03:32:22.826Z,66.05
2023-11-21T03:35:25.814Z,65.98
2023-11-21T03:38:27.996Z,65.53
2023-11-21T03:41:30.394Z,66.29
2023-11-21T03:44:32.393Z,66.29
2023-11-21T03:47:34.656Z,67.03
2023-11-21T03:50:36.885Z,66.60
2023-11-21T03:53:39.241Z,66.46
2023-11-21T03:56:43.617Z,66.42
2023-11-21T03:59:45.917Z,69.50
2023-11-21T04:02:48.003Z,72.20
2023-11-21T04:05:50.414Z,69.67
2023-11-21T04:08:52.384Z,72.06
2023-11-21T04:11:54.892Z,74.64
2023-11-21T04:14:56.826Z,76.20
2023-11-21T04:17:59.712Z,76.56
2023-11-21T04:21:01.772Z,76.22
2023-11-21T04:24:04.317Z,76.33
2023-11-21T04:27:06.386Z,73.96
2023-11-21T04:30:09.043Z,75.51
2023-11-21T04:33:11.068Z,77.61
2023-11-21T04:36:13.362Z,79.10
2023-11-21T04:39:15.326Z,80.22
2023-11-21T04:42:17.644Z,81.19
2023-11-21T04:45:19.673Z,81.69
2023-11-21T04:48:22.119Z,81.99
2023-11-21T04:51:24.113Z,82.49
2023-11-21T04:54:28.618Z,82.98
2023-11-21T04:57:31.001Z,83.74
2023-11-21T05:00:33.548Z,84.17
2023-11-21T05:03:36.311Z,84.54
2023-11-21T05:06:38.703Z,84.79
2023-11-21T05:09:45.251Z,84.62
2023-11-21T05:12:47.754Z,84.79
2023-11-21T05:15:50.842Z,84.96
2023-11-21T05:18:53.073Z,85.20
2023-11-21T05:21:55.084Z,85.38
2023-11-21T05:24:57.594Z,85.52
2023-11-21T05:28:02.431Z,85.67
2023-11-21T05:31:10.900Z,85.86
2023-11-21T05:34:18.971Z,86.15
2023-11-21T05:37:21.442Z,86.14
2023-11-21T05:40:23.943Z,86.14
2023-11-21T05:43:26.322Z,86.29
2023-11-21T05:46:28.335Z,86.69
2023-11-21T05:49:31.260Z,87.37
2023-11-21T05:52:33.941Z,87.73
2023-11-21T05:55:36.259Z,87.90
2023-11-21T05:58:38.313Z,88.22
2023-11-21T06:01:40.640Z,88.69
2023-11-21T06:04:42.728Z,88.60
2023-11-21T06:07:45.580Z,88.88
2023-11-21T06:10:50.427Z,89.13
2023-11-21T06:13:54.554Z,89.27
2023-11-21T06:16:57.797Z,89.50
2023-11-21T06:20:00.423Z,89.35
2023-11-21T06:23:04.917Z,89.02
2023-11-21T06:26:07.328Z,88.71
2023-11-21T06:29:09.327Z,88.63
2023-11-21T06:32:11.842Z,88.43
2023-11-21T06:35:14.540Z,87.82
2023-11-21T06:38:16.958Z,87.51
2023-11-21T06:41:19.142Z,86.79
2023-11-21T06:44:21.404Z,86.78
2023-11-21T06:47:23.445Z,86.88
2023-11-21T06:50:25.814Z,86.91
2023-11-21T06:53:27.810Z,87.01
2023-11-21T06:56:30.109Z,87.22
2023-11-21T06:59:32.213Z,86.90
2023-11-21T07:02:37.110Z,87.28
2023-11-21T07:05:40.348Z,87.17
2023-11-21T07:08:43.815Z,86.83
2023-11-21T07:11:45.851Z,87.13
2023-11-21T07:14:48.140Z,87.08
2023-11-21T07:17:50.288Z,86.43
2023-11-21T07:20:53.220Z,86.14
2023-11-21T07:23:55.199Z,85.83
2023-11-21T07:26:57.878Z,86.00
2023-11-21T07:29:59.996Z,86.03
2023-11-21T07:33:02.571Z,85.24
2023-11-21T07:36:04.868Z,85.00
2023-11-21T07:39:07.885Z,84.60
2023-11-21T07:42:10.339Z,84.42
2023-11-21T07:45:12.804Z,84.50
2023-11-21T07:48:15.017Z,84.65
2023-11-21T07:51:17.901Z,85.84
2023-11-21T07:54:19.980Z,85.73
2023-11-21T07:57:22.369Z,85.56
2023-11-21T08:00:31.414Z,85.16
2023-11-21T08:03:34.036Z,84.69
2023-11-21T08:06:36.505Z,84.51
2023-11-21T08:09:39.004Z,84.83
2023-11-21T08:12:41.119Z,85.60
2023-11-21T08:15:47.986Z,85.82
2023-11-21T08:18:50.144Z,85.38
2023-11-21T08:21:57.192Z,85.56
2023-11-21T08:24:59.572Z,84.87
2023-11-21T08:28:02.843Z,85.34
2023-11-21T08:31:05.778Z,85.99
2023-11-21T08:34:08.298Z,86.18
2023-11-21T08:37:10.389Z,85.85
2023-11-21T08:40:18.125Z,85.80
2023-11-21T08:43:21.239Z,84.96
2023-11-21T08:46:24.267Z,84.28
2023-11-21T08:49:28.841Z,83.56
2023-11-21T08:52:31.462Z,82.78
2023-11-21T08:55:38.784Z,83.10
2023-11-21T08:58:42.996Z,82.85
2023-11-21T09:01:45.272Z,81.30
2023-11-21T09:04:48.646Z,80.42
2023-11-21T09:07:50.865Z,80.22
2023-11-21T09:10:53.157Z,79.31
2023-11-21T09:13:55.446Z,78.16
2023-11-21T09:16:57.880Z,78.63
2023-11-21T09:19:59.987Z,78.19
2023-11-21T09:23:02.524Z,77.54
2023-11-21T09:26:06.515Z,77.62
2023-11-21T09:29:09.764Z,77.36
2023-11-21T09:32:15.390Z,77.11
2023-11-21T09:35:18.811Z,76.33
2023-11-21T09:38:21.107Z,76.86
2023-11-21T09:41:41.865Z,77.29
2023-11-21T09:45:00.574Z,77.04
2023-11-21T09:48:03.843Z,76.34
2023-11-21T09:51:07.300Z,77.20
2023-11-21T09:54:12.369Z,76.89
2023-11-21T09:57:15.369Z,76.81
2023-11-21T10:00:19.413Z,76.88
2023-11-21T10:03:22.399Z,76.38
2023-11-21T10:06:27.894Z,77.52
2023-11-21T10:09:31.931Z,77.36
2023-11-21T10:12:34.811Z,77.01
2023-11-21T10:15:37.129Z,77.18
2023-11-21T10:18:41.679Z,76.91
2023-11-21T10:21:43.862Z,78.19
2023-11-21T10:24:52.395Z,79.29
2023-11-21T10:28:06.317Z,80.31
2023-11-21T10:31:08.971Z,80.86
2023-11-21T10:34:19.557Z,80.89
2023-11-21T10:37:21.860Z,81.11
2023-11-21T10:40:23.977Z,81.72
2023-11-21T10:43:28.078Z,80.78
2023-11-21T10:46:31.853Z,81.13
2023-11-21T10:49:34.242Z,81.98
2023-11-21T10:52:37.492Z,82.15
2023-11-21T10:55:45.588Z,80.33
2023-11-21T10:58:55.469Z,78.63
2023-11-21T11:01:59.622Z,79.27
2023-11-21T11:05:03.196Z,80.73
2023-11-21T11:08:09.226Z,79.05
2023-11-21T11:11:11.594Z,80.03
2023-11-21T11:14:17.339Z,80.31
2023-11-21T11:17:23.895Z,78.72
2023-11-21T11:20:38.487Z,79.63
2023-11-21T11:23:51.552Z,77.76
2023-11-21T11:27:17.213Z,78.68
2023-11-21T11:30:47.933Z,78.56
2023-11-21T11:34:02.043Z,77.88
2023-11-21T11:37:07.533Z,76.68
2023-11-21T11:40:13.331Z,75.87
2023-11-21T11:43:29.093Z,76.56
2023-11-21T11:46:48.728Z,76.24
2023-11-21T11:49:59.356Z,75.21
2023-11-21T11:53:15.646Z,74.81
2023-11-21T11:56:24.009Z,74.41
2023-11-21T11:59:27.152Z,74.71
2023-11-21T12:02:29.576Z,74.12
2023-11-21T12:05:42.788Z,74.26
2023-11-21T12:08:46.578Z,74.62
2023-11-21T12:11:50.054Z,73.93
2023-11-21T12:14:52.309Z,74.12
2023-11-21T12:17:54.622Z,74.21
2023-11-21T12:20:56.844Z,73.53
2023-11-21T12:23:59.740Z,73.03
2023-11-21T12:27:01.729Z,73.19
2023-11-21T12:30:04.311Z,73.90
2023-11-21T12:33:08.211Z,73.19
2023-11-21T12:36:12.456Z,72.47
2023-11-21T12:39:15.783Z,74.31
2023-11-21T12:42:18.831Z,74.03
2023-11-21T12:45:29.027Z,73.49
2023-11-21T12:48:33.152Z,75.11
2023-11-21T12:51:35.202Z,74.72
2023-11-21T12:54:37.502Z,73.60
2023-11-21T12:57:44.280Z,72.95
2023-11-21T13:00:48.771Z,73.23
2023-11-21T13:03:52.514Z,73.84
2023-11-21T13:06:56.796Z,74.24
2023-11-21T13:09:58.922Z,73.95
2023-11-21T13:13:02.358Z,72.85
2023-11-21T13:16:09.380Z,73.61
2023-11-21T13:19:12.800Z,73.97
2023-11-21T13:22:14.772Z,73.23
2023-11-21T13:25:23.180Z,72.85
2023-11-21T13:28:28.004Z,73.94
2023-11-21T13:31:34.008Z,74.13
2023-11-21T13:34:37.900Z,73.33
2023-11-21T13:37:44.996Z,73.31
2023-11-21T13:40:54.652Z,72.40
2023-11-21T13:44:10.510Z,72.52
2023-11-21T13:47:12.638Z,72.68
2023-11-21T13:50:20.329Z,72.40
2023-11-21T13:53:31.856Z,73.20
2023-11-21T13:56:34.442Z,73.25
2023-11-21T13:59:37.959Z,72.70
2023-11-21T14:02:44.037Z,72.84
2023-11-21T14:05:49.102Z,73.01
2023-11-21T14:08:52.605Z,73.17
2023-11-21T14:11:58.052Z,71.92
2023-11-21T14:15:01.158Z,72.94
2023-11-21T14:18:07.507Z,72.52
2023-11-21T14:21:11.804Z,72.53
2023-11-21T14:24:13.968Z,72.60
2023-11-21T14:27:16.540Z,73.13
2023-11-21T14:30:20.950Z,73.81
2023-11-21T14:33:24.067Z,71.84
2023-11-21T14:36:27.052Z,71.71
2023-11-21T14:39:29.464Z,71.63
2023-11-21T14:42:31.447Z,71.64
2023-11-21T14:45:35.060Z,71.62
2023-11-21T14:48:43.812Z,70.88
2023-11-21T14:52:01.616Z,70.60
2023-11-21T14:55:22.833Z,71.28
2023-11-21T14:58:28.041Z,71.34
2023-11-21T15:02:02.280Z,71.69
2023-11-21T15:05:06.734Z,71.35
2023-11-21T15:08:22.966Z,71.63
2023-11-21T15:11:32.051Z,70.89
2023-11-21T15:14:37.986Z,71.06
2023-11-21T15:17:44.484Z,71.72
2023-11-21T15:20:46.604Z,71.39
2023-11-21T15:23:49.267Z,71.67
2023-11-21T15:26:51.783Z,71.19
2023-11-21T15:29:54.845Z,71.26
2023-11-21T15:32:57.371Z,70.75
2023-11-21T15:36:00.162Z,71.41
2023-11-21T15:39:02.409Z,70.06
2023-11-21T15:42:06.270Z,70.01
2023-11-21T15:45:09.660Z,70.06
2023-11-21T15:48:13.246Z,69.42
2023-11-21T15:51:15.390Z,68.71
2023-11-21T15:54:17.742Z,69.29
2023-11-21T15:57:23.103Z,70.48
2023-11-21T16:00:25.695Z,69.53
2023-11-21T16:03:29.765Z,68.92
2023-11-21T16:06:32.244Z,68.99
2023-11-21T16:09:37.576Z,69.78
2023-11-21T16:12:41.525Z,69.11
2023-11-21T16:15:43.942Z,69.14
2023-11-21T16:18:46.623Z,68.79
2023-11-21T16:21:49.215Z,69.47
2023-11-21T16:24:51.530Z,70.21
2023-11-21T16:27:53.546Z,69.84
2023-11-21T16:30:55.848Z,68.25
2023-11-21T16:34:01.004Z,69.00
2023-11-21T16:37:04.898Z,68.76
2023-11-21T16:40:10.224Z,68.48
2023-11-21T16:43:12.696Z,66.34
2023-11-21T16:46:15.212Z,67.53
2023-11-21T16:49:17.980Z,67.34
2023-11-21T16:52:23.755Z,67.51
2023-11-21T16:55:26.259Z,64.76
2023-11-21T16:58:28.235Z,66.33
2023-11-21T17:01:31.007Z,66.33
2023-11-21T17:04:33.572Z,67.56
2023-11-21T17:07:35.802Z,68.04
2023-11-21T17:10:38.314Z,67.75
2023-11-21T17:13:43.499Z,69.89
2023-11-21T17:16:46.845Z,70.04
2023-11-21T17:19:49.358Z,70.89
2023-11-21T17:22:51.372Z,69.21
2023-11-21T17:25:54.045Z,66.42
2023-11-21T17:28:56.853Z,66.57
2023-11-21T17:31:59.305Z,68.90
2023-11-21T17:35:01.814Z,67.65
2023-11-21T17:38:04.181Z,66.20
2023-11-21T17:41:06.251Z,65.63
2023-11-21T17:44:08.969Z,66.00
2023-11-21T17:47:12.095Z,67.26
2023-11-21T17:50:15.260Z,66.64
2023-11-21T17:53:17.727Z,66.25
2023-11-21T17:56:20.722Z,66.42
2023-11-21T17:59:23.674Z,66.04
2023-11-21T18:02:26.685Z,63.98
2023-11-21T18:05:28.759Z,66.31
2023-11-21T18:08:31.095Z,66.10
2023-11-21T18:11:33.103Z,68.57
2023-11-21T18:14:37.148Z,67.98
2023-11-21T18:17:43.575Z,68.90
2023-11-21T18:20:53.788Z,67.03
2023-11-21T18:23:56.134Z,65.44
2023-11-21T18:26:58.459Z,65.56
2023-11-21T18:30:03.712Z,66.60
2023-11-21T18:33:06.146Z,68.92
2023-11-21T18:36:08.972Z,73.23
2023-11-21T18:39:15.695Z,72.13
2023-11-21T18:42:18.648Z,69.55
2023-11-21T18:45:20.961Z,68.63
2023-11-21T18:48:23.347Z,73.09
2023-11-21T18:51:25.818Z,72.10
2023-11-21T18:54:27.980Z,69.18
2023-11-21T18:57:32.665Z,70.70
2023-11-21T19:00:34.867Z,73.01
2023-11-21T19:03:37.220Z,73.77
2023-11-21T19:06:39.334Z,74.29
2023-11-21T19:09:41.917Z,76.42
2023-11-21T19:12:52.470Z,73.31
2023-11-21T19:15:54.749Z,72.31
2023-11-21T19:18:59.963Z,72.38
2023-11-21T19:22:02.318Z,71.33
2023-11-21T19:25:07.666Z,71.12
2023-11-21T19:28:09.913Z,69.99
2023-11-21T19:31:19.863Z,71.94
2023-11-21T19:34:22.251Z,72.33
2023-11-21T19:37:24.423Z,72.27
2023-11-21T19:40:26.768Z,72.67
2023-11-21T19:43:32.381Z,72.31
2023-11-21T19:46:34.823Z,72.28
2023-11-21T19:49:36.817Z,72.60
2023-11-21T19:52:39.208Z,73.38
2023-11-21T19:55:41.187Z,72.65
2023-11-21T19:58:43.406Z,73.07
2023-11-21T20:01:45.466Z,73.65
2023-11-21T20:04:47.843Z,74.37
2023-11-21T20:07:49.788Z,75.89
2023-11-21T20:10:52.171Z,76.40
2023-11-21T20:13:54.990Z,77.26
2023-11-21T20:16:59.896Z,78.34
2023-11-21T20:20:03.034Z,78.47
2023-11-21T20:23:05.972Z,78.76
2023-11-21T20:26:08.028Z,77.89
2023-11-21T20:29:10.626Z,78.05
2023-11-21T20:32:12.921Z,78.85
2023-11-21T20:35:37.432Z,79.05
2023-11-21T20:38:39.702Z,79.25
2023-11-21T20:41:42.563Z,79.46
2023-11-21T20:44:44.587Z,78.79
2023-11-21T20:47:47.037Z,77.44
2023-11-21T20:50:49.157Z,76.82
2023-11-21T20:53:51.409Z,77.09
2023-11-21T20:56:53.664Z,78.20
2023-11-21T20:59:56.026Z,78.54
2023-11-21T21:02:58.306Z,78.38
2023-11-21T21:06:01.146Z,79.32
2023-11-21T21:09:03.197Z,73.71
2023-11-21T21:12:06.209Z,76.07
2023-11-21T21:15:11.247Z,71.28
2023-11-21T21:18:13.566Z,70.17
2023-11-21T21:21:15.610Z,70.62
2023-11-21T21:24:17.955Z,71.53
2023-11-21T21:27:19.960Z,71.80
2023-11-21T21:30:22.752Z,74.52
2023-11-21T21:33:24.755Z,73.10
2023-11-21T21:36:27.286Z,68.83
2023-11-21T21:39:29.363Z,69.82
2023-11-21T21:42:31.639Z,71.00
2023-11-21T21:45:33.754Z,70.48
2023-11-21T21:48:42.104Z,70.76
2023-11-21T21:51:45.017Z,70.97
2023-11-21T21:54:47.824Z,70.59
2023-11-21T21:57:49.904Z,71.44
2023-11-21T22:00:52.172Z,72.63
2023-11-21T22:03:54.409Z,72.51
2023-11-21T22:06:56.832Z,73.35
2023-11-21T22:09:58.794Z,70.33
2023-11-21T22:13:01.185Z,68.36
2023-11-21T22:16:03.235Z,67.35
2023-11-21T22:19:07.215Z,67.16
2023-11-21T22:22:09.486Z,66.08
2023-11-21T22:25:12.519Z,63.52
2023-11-21T22:28:14.449Z,66.32
2023-11-21T22:31:16.666Z,70.21
2023-11-21T22:34:19.398Z,71.65
2023-11-21T22:37:22.057Z,73.53
2023-11-21T22:40:24.012Z,75.44
2023-11-21T22:43:26.278Z,73.08
2023-11-21T22:46:30.558Z,70.76
2023-11-21T22:49:33.256Z,69.00
2023-11-21T22:52:35.200Z,68.16
2023-11-21T22:55:37.463Z,67.14
2023-11-21T22:58:40.629Z,66.86
2023-11-21T23:01:42.973Z,66.83
2023-11-21T23:04:45.194Z,66.35
2023-11-21T23:07:47.723Z,66.18
2023-11-21T23:10:54.313Z,66.13
2023-11-21T23:13:56.641Z,62.41
2023-11-21T23:16:59.452Z,64.53
2023-11-21T23:20:07.079Z,68.78
2023-11-21T23:23:09.066Z,71.25
2023-11-21T23:26:16.164Z,72.12
2023-11-21T23:29:18.284Z,74.87
2023-11-21T23:32:22.343Z,73.51
2023-11-21T23:35:25.059Z,70.95
2023-11-21T23:38:27.519Z,69.28
2023-11-21T23:41:29.470Z,68.03
2023-11-21T23:44:31.943Z,67.43
2023-11-21T23:47:34.032Z,66.87
2023-11-21T23:50:36.428Z,66.39
2023-11-21T23:53:38.382Z,65.58
2023-11-21T23:56:40.809Z,62.29
2023-11-21T23:59:42.774Z,65.33
